sensor_id;sensor_type;location;lat;lon;timestamp;P1;durP1;ratioP1;P2;durP2;ratioP2
7158;SDS011;63175;52.374;13.132;2023-06-14T00:01:07;2.20;;;2.00;;
7158;SDS011;63175;52.374;13.132;2023-06-14T00:03:34;2.23;;;1.80;;
7158;SDS011;63175;52.374;13.132;2023-06-14T00:06:01;1.53;;;1.43;;
7158;SDS011;63175;52.374;13.132;2023-06-14T00:08:28;3.30;;;1.70;;
7158;SDS011;63175;52.374;13.132;2023-06-14T00:10:56;2.13;;;1.80;;
7158;SDS011;63175;52.374;13.132;2023-06-14T00:13:23;2.10;;;1.90;;
7158;SDS011;63175;52.374;13.132;2023-06-14T00:15:50;2.07;;;1.83;;
7158;SDS011;63175;52.374;13.132;2023-06-14T00:18:19;1.67;;;1.57;;
7158;SDS011;63175;52.374;13.132;2023-06-14T00:20:49;3.37;;;1.87;;
7158;SDS011;63175;52.374;13.132;2023-06-14T00:23:16;2.13;;;1.90;;
7158;SDS011;63175;52.374;13.132;2023-06-14T00:25:44;2.20;;;2.00;;
7158;SDS011;63175;52.374;13.132;2023-06-14T00:28:12;2.00;;;1.80;;
7158;SDS011;63175;52.374;13.132;2023-06-14T00:30:39;3.13;;;2.10;;
7158;SDS011;63175;52.374;13.132;2023-06-14T00:33:06;3.20;;;2.50;;
7158;SDS011;63175;52.374;13.132;2023-06-14T00:35:33;2.47;;;2.27;;
7158;SDS011;63175;52.374;13.132;2023-06-14T00:37:59;3.17;;;2.60;;
7158;SDS011;63175;52.374;13.132;2023-06-14T00:40:26;4.37;;;2.70;;
7158;SDS011;63175;52.374;13.132;2023-06-14T00:42:53;2.43;;;2.23;;
7158;SDS011;63175;52.374;13.132;2023-06-14T00:45:22;2.57;;;2.37;;
7158;SDS011;63175;52.374;13.132;2023-06-14T00:47:49;3.60;;;2.07;;
7158;SDS011;63175;52.374;13.132;2023-06-14T00:50:20;2.20;;;2.00;;
7158;SDS011;63175;52.374;13.132;2023-06-14T00:52:48;2.53;;;2.37;;
7158;SDS011;63175;52.374;13.132;2023-06-14T00:55:15;2.03;;;1.80;;
7158;SDS011;63175;52.374;13.132;2023-06-14T00:57:42;2.70;;;2.47;;
7158;SDS011;63175;52.374;13.132;2023-06-14T01:00:11;3.00;;;2.70;;
7158;SDS011;63175;52.374;13.132;2023-06-14T01:02:40;2.20;;;2.10;;
7158;SDS011;63175;52.374;13.132;2023-06-14T01:05:07;5.53;;;2.23;;
7158;SDS011;63175;52.374;13.132;2023-06-14T01:07:40;2.40;;;2.20;;
7158;SDS011;63175;52.374;13.132;2023-06-14T01:10:17;2.20;;;2.10;;
7158;SDS011;63175;52.374;13.132;2023-06-14T01:12:58;2.17;;;1.80;;
7158;SDS011;63175;52.374;13.132;2023-06-14T01:15:31;3.47;;;2.20;;
7158;SDS011;63175;52.374;13.132;2023-06-14T01:17:59;1.90;;;1.80;;
7158;SDS011;63175;52.374;13.132;2023-06-14T01:20:29;3.33;;;2.17;;
7158;SDS011;63175;52.374;13.132;2023-06-14T01:22:59;2.20;;;2.00;;
7158;SDS011;63175;52.374;13.132;2023-06-14T01:25:26;2.57;;;2.30;;
7158;SDS011;63175;52.374;13.132;2023-06-14T01:27:53;2.63;;;2.43;;
7158;SDS011;63175;52.374;13.132;2023-06-14T01:30:23;2.00;;;1.87;;
7158;SDS011;63175;52.374;13.132;2023-06-14T01:32:52;1.97;;;1.80;;
7158;SDS011;63175;52.374;13.132;2023-06-14T01:35:20;3.00;;;2.80;;
7158;SDS011;63175;52.374;13.132;2023-06-14T01:37:48;4.73;;;3.40;;
7158;SDS011;63175;52.374;13.132;2023-06-14T01:40:18;3.27;;;2.97;;
7158;SDS011;63175;52.374;13.132;2023-06-14T01:42:47;4.00;;;2.60;;
7158;SDS011;63175;52.374;13.132;2023-06-14T01:45:15;2.40;;;2.20;;
7158;SDS011;63175;52.374;13.132;2023-06-14T01:47:44;2.90;;;2.20;;
7158;SDS011;63175;52.374;13.132;2023-06-14T01:50:12;2.27;;;2.17;;
7158;SDS011;63175;52.374;13.132;2023-06-14T01:52:39;3.93;;;2.50;;
7158;SDS011;63175;52.374;13.132;2023-06-14T01:55:06;6.33;;;3.07;;
7158;SDS011;63175;52.374;13.132;2023-06-14T01:57:35;2.83;;;2.50;;
7158;SDS011;63175;52.374;13.132;2023-06-14T02:00:02;2.30;;;2.17;;
7158;SDS011;63175;52.374;13.132;2023-06-14T02:02:33;2.73;;;2.53;;
7158;SDS011;63175;52.374;13.132;2023-06-14T02:05:00;2.73;;;2.50;;
7158;SDS011;63175;52.374;13.132;2023-06-14T02:07:27;3.20;;;2.67;;
7158;SDS011;63175;52.374;13.132;2023-06-14T02:09:54;4.13;;;2.60;;
7158;SDS011;63175;52.374;13.132;2023-06-14T02:12:21;2.50;;;2.30;;
7158;SDS011;63175;52.374;13.132;2023-06-14T02:14:49;3.33;;;2.50;;
7158;SDS011;63175;52.374;13.132;2023-06-14T02:17:16;4.90;;;3.10;;
7158;SDS011;63175;52.374;13.132;2023-06-14T02:19:43;2.53;;;2.40;;
7158;SDS011;63175;52.374;13.132;2023-06-14T02:22:09;2.80;;;2.60;;
7158;SDS011;63175;52.374;13.132;2023-06-14T02:24:36;2.73;;;2.53;;
7158;SDS011;63175;52.374;13.132;2023-06-14T02:27:03;2.70;;;2.60;;
7158;SDS011;63175;52.374;13.132;2023-06-14T02:29:31;3.00;;;2.70;;
7158;SDS011;63175;52.374;13.132;2023-06-14T02:31:59;2.60;;;2.40;;
7158;SDS011;63175;52.374;13.132;2023-06-14T02:34:26;2.97;;;2.77;;
7158;SDS011;63175;52.374;13.132;2023-06-14T02:36:53;4.57;;;2.97;;
7158;SDS011;63175;52.374;13.132;2023-06-14T02:39:20;3.30;;;3.00;;
7158;SDS011;63175;52.374;13.132;2023-06-14T02:41:48;4.40;;;3.20;;
7158;SDS011;63175;52.374;13.132;2023-06-14T02:44:15;3.23;;;3.00;;
7158;SDS011;63175;52.374;13.132;2023-06-14T02:46:44;3.70;;;2.77;;
7158;SDS011;63175;52.374;13.132;2023-06-14T02:49:12;2.97;;;2.77;;
7158;SDS011;63175;52.374;13.132;2023-06-14T02:51:39;3.43;;;2.43;;
7158;SDS011;63175;52.374;13.132;2023-06-14T02:54:06;3.13;;;2.77;;
7158;SDS011;63175;52.374;13.132;2023-06-14T02:56:33;2.50;;;2.30;;
7158;SDS011;63175;52.374;13.132;2023-06-14T02:59:00;3.33;;;3.00;;
7158;SDS011;63175;52.374;13.132;2023-06-14T03:01:27;3.10;;;2.90;;
7158;SDS011;63175;52.374;13.132;2023-06-14T03:03:59;4.73;;;2.90;;
7158;SDS011;63175;52.374;13.132;2023-06-14T03:06:27;3.10;;;2.83;;
7158;SDS011;63175;52.374;13.132;2023-06-14T03:08:55;6.40;;;3.83;;
7158;SDS011;63175;52.374;13.132;2023-06-14T03:11:24;3.30;;;3.00;;
7158;SDS011;63175;52.374;13.132;2023-06-14T03:13:51;4.30;;;3.10;;
7158;SDS011;63175;52.374;13.132;2023-06-14T03:16:18;3.60;;;3.17;;
7158;SDS011;63175;52.374;13.132;2023-06-14T03:18:47;4.47;;;3.30;;
7158;SDS011;63175;52.374;13.132;2023-06-14T03:21:14;3.87;;;3.07;;
7158;SDS011;63175;52.374;13.132;2023-06-14T03:23:43;3.13;;;2.93;;
7158;SDS011;63175;52.374;13.132;2023-06-14T03:26:10;3.13;;;2.87;;
7158;SDS011;63175;52.374;13.132;2023-06-14T03:28:38;4.27;;;3.73;;
7158;SDS011;63175;52.374;13.132;2023-06-14T03:31:05;3.23;;;2.93;;
7158;SDS011;63175;52.374;13.132;2023-06-14T03:33:33;3.27;;;3.03;;
7158;SDS011;63175;52.374;13.132;2023-06-14T03:36:01;4.33;;;3.33;;
7158;SDS011;63175;52.374;13.132;2023-06-14T03:38:28;3.93;;;3.53;;
7158;SDS011;63175;52.374;13.132;2023-06-14T03:40:56;3.40;;;3.10;;
7158;SDS011;63175;52.374;13.132;2023-06-14T03:43:23;5.00;;;3.50;;
7158;SDS011;63175;52.374;13.132;2023-06-14T03:45:50;3.90;;;3.20;;
7158;SDS011;63175;52.374;13.132;2023-06-14T03:48:17;3.80;;;3.50;;
7158;SDS011;63175;52.374;13.132;2023-06-14T03:50:43;3.17;;;2.93;;
7158;SDS011;63175;52.374;13.132;2023-06-14T03:53:10;3.50;;;3.20;;
7158;SDS011;63175;52.374;13.132;2023-06-14T03:55:37;3.57;;;3.33;;
7158;SDS011;63175;52.374;13.132;2023-06-14T03:58:05;3.20;;;2.93;;
7158;SDS011;63175;52.374;13.132;2023-06-14T04:00:32;3.80;;;3.50;;
7158;SDS011;63175;52.374;13.132;2023-06-14T04:03:00;10.70;;;3.30;;
7158;SDS011;63175;52.374;13.132;2023-06-14T04:05:28;5.03;;;4.60;;
7158;SDS011;63175;52.374;13.132;2023-06-14T04:07:55;3.07;;;2.80;;
7158;SDS011;63175;52.374;13.132;2023-06-14T04:10:22;3.40;;;3.17;;
7158;SDS011;63175;52.374;13.132;2023-06-14T04:12:49;3.47;;;3.27;;
7158;SDS011;63175;52.374;13.132;2023-06-14T04:15:18;4.27;;;3.90;;
7158;SDS011;63175;52.374;13.132;2023-06-14T04:17:45;3.93;;;3.53;;
7158;SDS011;63175;52.374;13.132;2023-06-14T04:20:12;3.60;;;3.30;;
7158;SDS011;63175;52.374;13.132;2023-06-14T04:22:38;4.03;;;3.70;;
7158;SDS011;63175;52.374;13.132;2023-06-14T04:25:06;4.53;;;4.13;;
7158;SDS011;63175;52.374;13.132;2023-06-14T04:27:35;6.67;;;4.10;;
7158;SDS011;63175;52.374;13.132;2023-06-14T04:30:02;4.03;;;3.83;;
7158;SDS011;63175;52.374;13.132;2023-06-14T04:32:31;4.33;;;3.93;;
7158;SDS011;63175;52.374;13.132;2023-06-14T04:34:58;4.10;;;3.00;;
7158;SDS011;63175;52.374;13.132;2023-06-14T04:37:27;4.00;;;3.60;;
7158;SDS011;63175;52.374;13.132;2023-06-14T04:39:54;4.43;;;3.93;;
7158;SDS011;63175;52.374;13.132;2023-06-14T04:42:22;3.53;;;3.23;;
7158;SDS011;63175;52.374;13.132;2023-06-14T04:44:50;3.60;;;3.30;;
7158;SDS011;63175;52.374;13.132;2023-06-14T04:47:21;3.50;;;3.30;;
7158;SDS011;63175;52.374;13.132;2023-06-14T04:49:51;4.37;;;3.93;;
7158;SDS011;63175;52.374;13.132;2023-06-14T04:52:19;4.60;;;4.20;;
7158;SDS011;63175;52.374;13.132;2023-06-14T04:54:46;5.03;;;4.63;;
7158;SDS011;63175;52.374;13.132;2023-06-14T04:57:13;4.30;;;3.90;;
7158;SDS011;63175;52.374;13.132;2023-06-14T04:59:42;4.20;;;3.83;;
7158;SDS011;63175;52.374;13.132;2023-06-14T05:02:09;4.50;;;4.10;;
7158;SDS011;63175;52.374;13.132;2023-06-14T05:04:36;4.13;;;3.83;;
7158;SDS011;63175;52.374;13.132;2023-06-14T05:07:06;4.50;;;4.00;;
7158;SDS011;63175;52.374;13.132;2023-06-14T05:09:34;4.70;;;4.30;;
7158;SDS011;63175;52.374;13.132;2023-06-14T05:12:01;11.70;;;4.37;;
7158;SDS011;63175;52.374;13.132;2023-06-14T05:14:28;4.03;;;3.73;;
7158;SDS011;63175;52.374;13.132;2023-06-14T05:16:55;5.90;;;4.23;;
7158;SDS011;63175;52.374;13.132;2023-06-14T05:19:22;4.67;;;4.27;;
7158;SDS011;63175;52.374;13.132;2023-06-14T05:21:49;3.70;;;3.40;;
7158;SDS011;63175;52.374;13.132;2023-06-14T05:24:17;5.00;;;4.50;;
7158;SDS011;63175;52.374;13.132;2023-06-14T05:26:44;4.53;;;4.00;;
7158;SDS011;63175;52.374;13.132;2023-06-14T05:29:11;4.93;;;4.00;;
7158;SDS011;63175;52.374;13.132;2023-06-14T05:31:38;3.90;;;3.60;;
7158;SDS011;63175;52.374;13.132;2023-06-14T05:34:05;4.33;;;3.93;;
7158;SDS011;63175;52.374;13.132;2023-06-14T05:36:32;4.30;;;4.00;;
7158;SDS011;63175;52.374;13.132;2023-06-14T05:38:59;5.47;;;4.90;;
7158;SDS011;63175;52.374;13.132;2023-06-14T05:41:29;4.50;;;4.10;;
7158;SDS011;63175;52.374;13.132;2023-06-14T05:43:56;4.70;;;4.30;;
7158;SDS011;63175;52.374;13.132;2023-06-14T05:46:25;3.37;;;3.17;;
7158;SDS011;63175;52.374;13.132;2023-06-14T05:48:52;4.57;;;4.20;;
7158;SDS011;63175;52.374;13.132;2023-06-14T05:51:19;3.73;;;3.43;;
7158;SDS011;63175;52.374;13.132;2023-06-14T05:53:46;3.10;;;2.90;;
7158;SDS011;63175;52.374;13.132;2023-06-14T05:56:13;4.13;;;3.83;;
7158;SDS011;63175;52.374;13.132;2023-06-14T05:58:41;3.43;;;3.20;;
7158;SDS011;63175;52.374;13.132;2023-06-14T06:01:08;2.87;;;2.67;;
7158;SDS011;63175;52.374;13.132;2023-06-14T06:03:35;2.80;;;2.60;;
7158;SDS011;63175;52.374;13.132;2023-06-14T06:06:02;3.67;;;3.37;;
7158;SDS011;63175;52.374;13.132;2023-06-14T06:08:29;3.20;;;3.00;;
7158;SDS011;63175;52.374;13.132;2023-06-14T06:10:56;3.67;;;3.37;;
7158;SDS011;63175;52.374;13.132;2023-06-14T06:13:23;3.63;;;3.33;;
7158;SDS011;63175;52.374;13.132;2023-06-14T06:15:51;3.60;;;3.30;;
7158;SDS011;63175;52.374;13.132;2023-06-14T06:18:18;4.53;;;2.90;;
7158;SDS011;63175;52.374;13.132;2023-06-14T06:20:45;2.90;;;2.70;;
7158;SDS011;63175;52.374;13.132;2023-06-14T06:23:12;2.90;;;2.70;;
7158;SDS011;63175;52.374;13.132;2023-06-14T06:25:39;2.77;;;2.53;;
7158;SDS011;63175;52.374;13.132;2023-06-14T06:28:06;2.50;;;2.30;;
7158;SDS011;63175;52.374;13.132;2023-06-14T06:30:33;2.40;;;2.20;;
7158;SDS011;63175;52.374;13.132;2023-06-14T06:33:02;4.33;;;2.97;;
7158;SDS011;63175;52.374;13.132;2023-06-14T06:35:29;3.30;;;3.10;;
7158;SDS011;63175;52.374;13.132;2023-06-14T06:37:58;2.67;;;2.57;;
7158;SDS011;63175;52.374;13.132;2023-06-14T06:40:25;3.10;;;2.80;;
7158;SDS011;63175;52.374;13.132;2023-06-14T06:42:52;2.80;;;2.53;;
7158;SDS011;63175;52.374;13.132;2023-06-14T06:45:19;2.50;;;2.30;;
7158;SDS011;63175;52.374;13.132;2023-06-14T06:47:46;3.17;;;2.97;;
7158;SDS011;63175;52.374;13.132;2023-06-14T06:50:14;2.80;;;2.60;;
7158;SDS011;63175;52.374;13.132;2023-06-14T06:52:41;3.00;;;2.80;;
7158;SDS011;63175;52.374;13.132;2023-06-14T06:55:10;2.97;;;2.70;;
7158;SDS011;63175;52.374;13.132;2023-06-14T06:57:38;2.73;;;2.53;;
7158;SDS011;63175;52.374;13.132;2023-06-14T07:00:05;3.07;;;2.77;;
7158;SDS011;63175;52.374;13.132;2023-06-14T07:02:34;3.10;;;2.80;;
7158;SDS011;63175;52.374;13.132;2023-06-14T07:05:01;2.43;;;2.33;;
7158;SDS011;63175;52.374;13.132;2023-06-14T07:07:30;3.00;;;2.67;;
7158;SDS011;63175;52.374;13.132;2023-06-14T07:09:57;2.70;;;2.50;;
7158;SDS011;63175;52.374;13.132;2023-06-14T07:12:25;3.30;;;2.97;;
7158;SDS011;63175;52.374;13.132;2023-06-14T07:14:52;3.57;;;3.27;;
7158;SDS011;63175;52.374;13.132;2023-06-14T07:17:19;3.40;;;3.10;;
7158;SDS011;63175;52.374;13.132;2023-06-14T07:19:45;5.33;;;4.03;;
7158;SDS011;63175;52.374;13.132;2023-06-14T07:22:12;3.67;;;3.33;;
7158;SDS011;63175;52.374;13.132;2023-06-14T07:24:41;3.93;;;3.57;;
7158;SDS011;63175;52.374;13.132;2023-06-14T07:27:07;3.73;;;3.43;;
7158;SDS011;63175;52.374;13.132;2023-06-14T07:29:35;3.77;;;3.37;;
7158;SDS011;63175;52.374;13.132;2023-06-14T07:32:01;3.17;;;2.97;;
7158;SDS011;63175;52.374;13.132;2023-06-14T07:34:29;3.07;;;2.87;;
7158;SDS011;63175;52.374;13.132;2023-06-14T07:36:55;3.20;;;3.00;;
7158;SDS011;63175;52.374;13.132;2023-06-14T07:39:22;3.60;;;2.50;;
7158;SDS011;63175;52.374;13.132;2023-06-14T07:41:51;3.40;;;3.17;;
7158;SDS011;63175;52.374;13.132;2023-06-14T07:44:17;3.73;;;3.43;;
7158;SDS011;63175;52.374;13.132;2023-06-14T07:46:44;4.33;;;3.77;;
7158;SDS011;63175;52.374;13.132;2023-06-14T07:49:14;4.23;;;3.93;;
7158;SDS011;63175;52.374;13.132;2023-06-14T07:51:41;4.30;;;3.90;;
7158;SDS011;63175;52.374;13.132;2023-06-14T07:54:09;4.70;;;4.30;;
7158;SDS011;63175;52.374;13.132;2023-06-14T07:56:36;3.90;;;3.50;;
7158;SDS011;63175;52.374;13.132;2023-06-14T07:59:04;4.20;;;3.80;;
7158;SDS011;63175;52.374;13.132;2023-06-14T08:01:32;4.10;;;3.70;;
7158;SDS011;63175;52.374;13.132;2023-06-14T08:03:59;2.80;;;2.60;;
7158;SDS011;63175;52.374;13.132;2023-06-14T08:06:26;3.57;;;3.20;;
7158;SDS011;63175;52.374;13.132;2023-06-14T08:08:53;3.93;;;3.53;;
7158;SDS011;63175;52.374;13.132;2023-06-14T08:11:20;7.93;;;3.80;;
7158;SDS011;63175;52.374;13.132;2023-06-14T08:13:49;5.17;;;3.70;;
7158;SDS011;63175;52.374;13.132;2023-06-14T08:16:17;3.87;;;3.20;;
7158;SDS011;63175;52.374;13.132;2023-06-14T08:18:44;6.40;;;2.73;;
7158;SDS011;63175;52.374;13.132;2023-06-14T08:21:11;3.80;;;3.30;;
7158;SDS011;63175;52.374;13.132;2023-06-14T08:23:39;4.73;;;3.33;;
7158;SDS011;63175;52.374;13.132;2023-06-14T08:26:07;3.50;;;3.20;;
7158;SDS011;63175;52.374;13.132;2023-06-14T08:28:34;3.50;;;3.27;;
7158;SDS011;63175;52.374;13.132;2023-06-14T08:31:01;4.10;;;3.33;;
7158;SDS011;63175;52.374;13.132;2023-06-14T08:33:30;3.33;;;3.13;;
7158;SDS011;63175;52.374;13.132;2023-06-14T08:35:58;3.23;;;3.03;;
7158;SDS011;63175;52.374;13.132;2023-06-14T08:38:25;4.87;;;3.10;;
7158;SDS011;63175;52.374;13.132;2023-06-14T08:40:52;6.17;;;3.07;;
7158;SDS011;63175;52.374;13.132;2023-06-14T08:43:23;3.57;;;3.20;;
7158;SDS011;63175;52.374;13.132;2023-06-14T08:45:50;3.17;;;2.90;;
7158;SDS011;63175;52.374;13.132;2023-06-14T08:48:20;3.90;;;3.50;;
7158;SDS011;63175;52.374;13.132;2023-06-14T08:50:51;5.70;;;3.20;;
7158;SDS011;63175;52.374;13.132;2023-06-14T08:53:27;7.43;;;3.10;;
7158;SDS011;63175;52.374;13.132;2023-06-14T08:55:57;3.13;;;2.80;;
7158;SDS011;63175;52.374;13.132;2023-06-14T08:58:26;3.00;;;2.80;;
7158;SDS011;63175;52.374;13.132;2023-06-14T09:00:54;3.73;;;3.03;;
7158;SDS011;63175;52.374;13.132;2023-06-14T09:03:22;2.73;;;2.57;;
7158;SDS011;63175;52.374;13.132;2023-06-14T09:05:56;4.20;;;2.33;;
7158;SDS011;63175;52.374;13.132;2023-06-14T09:08:25;2.47;;;2.27;;
7158;SDS011;63175;52.374;13.132;2023-06-14T09:10:55;3.03;;;2.73;;
7158;SDS011;63175;52.374;13.132;2023-06-14T09:13:22;4.70;;;2.87;;
7158;SDS011;63175;52.374;13.132;2023-06-14T09:15:49;4.23;;;2.90;;
7158;SDS011;63175;52.374;13.132;2023-06-14T09:18:16;2.30;;;2.10;;
7158;SDS011;63175;52.374;13.132;2023-06-14T09:20:45;2.60;;;2.40;;
7158;SDS011;63175;52.374;13.132;2023-06-14T09:40:06;3.80;;;2.63;;
7158;SDS011;63175;52.374;13.132;2023-06-14T09:42:33;2.30;;;2.20;;
7158;SDS011;63175;52.374;13.132;2023-06-14T09:45:02;3.93;;;2.37;;
7158;SDS011;63175;52.374;13.132;2023-06-14T09:47:30;2.63;;;2.43;;
7158;SDS011;63175;52.374;13.132;2023-06-14T09:49:57;2.37;;;2.10;;
7158;SDS011;63175;52.374;13.132;2023-06-14T09:52:25;2.20;;;2.10;;
7158;SDS011;63175;52.374;13.132;2023-06-14T09:54:53;3.27;;;2.40;;
7158;SDS011;63175;52.374;13.132;2023-06-14T09:57:23;2.87;;;2.50;;
7158;SDS011;63175;52.374;13.132;2023-06-14T09:59:52;2.50;;;2.30;;
7158;SDS011;63175;52.374;13.132;2023-06-14T10:02:24;4.73;;;2.63;;
7158;SDS011;63175;52.374;13.132;2023-06-14T10:04:55;2.67;;;2.47;;
7158;SDS011;63175;52.374;13.132;2023-06-14T10:07:26;3.53;;;2.30;;
7158;SDS011;63175;52.374;13.132;2023-06-14T10:09:56;3.03;;;2.83;;
7158;SDS011;63175;52.374;13.132;2023-06-14T10:12:25;3.50;;;2.70;;
7158;SDS011;63175;52.374;13.132;2023-06-14T10:14:52;4.80;;;3.40;;
7158;SDS011;63175;52.374;13.132;2023-06-14T10:17:23;2.30;;;2.20;;
7158;SDS011;63175;52.374;13.132;2023-06-14T10:20:02;2.53;;;2.33;;
7158;SDS011;63175;52.374;13.132;2023-06-14T10:22:42;3.07;;;2.40;;
7158;SDS011;63175;52.374;13.132;2023-06-14T10:25:12;4.07;;;2.60;;
7158;SDS011;63175;52.374;13.132;2023-06-14T10:27:53;2.77;;;2.60;;
7158;SDS011;63175;52.374;13.132;2023-06-14T10:30:28;4.00;;;2.57;;
7158;SDS011;63175;52.374;13.132;2023-06-14T10:33:04;3.70;;;2.60;;
7158;SDS011;63175;52.374;13.132;2023-06-14T10:35:32;2.90;;;2.70;;
7158;SDS011;63175;52.374;13.132;2023-06-14T10:38:06;9.83;;;2.70;;
7158;SDS011;63175;52.374;13.132;2023-06-14T10:40:34;3.47;;;2.70;;
7158;SDS011;63175;52.374;13.132;2023-06-14T10:43:17;8.80;;;3.00;;
7158;SDS011;63175;52.374;13.132;2023-06-14T10:48:41;3.40;;;3.10;;
7158;SDS011;63175;52.374;13.132;2023-06-14T10:51:15;2.63;;;2.43;;
7158;SDS011;63175;52.374;13.132;2023-06-14T10:53:45;4.40;;;2.90;;
7158;SDS011;63175;52.374;13.132;2023-06-14T10:56:22;2.50;;;2.30;;
7158;SDS011;63175;52.374;13.132;2023-06-14T10:58:52;2.80;;;1.93;;
7158;SDS011;63175;52.374;13.132;2023-06-14T11:01:23;3.07;;;2.77;;
7158;SDS011;63175;52.374;13.132;2023-06-14T11:04:01;2.70;;;2.50;;
7158;SDS011;63175;52.374;13.132;2023-06-14T11:06:40;3.30;;;2.80;;
7158;SDS011;63175;52.374;13.132;2023-06-14T11:09:27;2.90;;;2.10;;
7158;SDS011;63175;52.374;13.132;2023-06-14T11:12:20;3.07;;;2.80;;
7158;SDS011;63175;52.374;13.132;2023-06-14T11:14:49;4.33;;;2.67;;
7158;SDS011;63175;52.374;13.132;2023-06-14T11:17:16;3.07;;;2.80;;
7158;SDS011;63175;52.374;13.132;2023-06-14T11:19:43;2.97;;;2.67;;
7158;SDS011;63175;52.374;13.132;2023-06-14T11:22:10;4.83;;;2.27;;
7158;SDS011;63175;52.374;13.132;2023-06-14T11:24:39;3.67;;;2.50;;
7158;SDS011;63175;52.374;13.132;2023-06-14T11:27:06;3.90;;;2.97;;
7158;SDS011;63175;52.374;13.132;2023-06-14T11:29:33;2.73;;;2.53;;
7158;SDS011;63175;52.374;13.132;2023-06-14T11:32:02;3.30;;;3.00;;
7158;SDS011;63175;52.374;13.132;2023-06-14T11:34:32;3.10;;;2.70;;
7158;SDS011;63175;52.374;13.132;2023-06-14T11:36:59;2.97;;;2.60;;
7158;SDS011;63175;52.374;13.132;2023-06-14T11:39:26;2.40;;;2.20;;
7158;SDS011;63175;52.374;13.132;2023-06-14T11:41:53;2.40;;;2.30;;
7158;SDS011;63175;52.374;13.132;2023-06-14T11:44:20;2.90;;;2.10;;
7158;SDS011;63175;52.374;13.132;2023-06-14T11:46:47;3.90;;;3.10;;
7158;SDS011;63175;52.374;13.132;2023-06-14T11:49:17;2.93;;;2.70;;
7158;SDS011;63175;52.374;13.132;2023-06-14T11:51:43;3.30;;;2.60;;
7158;SDS011;63175;52.374;13.132;2023-06-14T11:54:10;2.73;;;2.50;;
7158;SDS011;63175;52.374;13.132;2023-06-14T11:56:38;3.37;;;2.60;;
7158;SDS011;63175;52.374;13.132;2023-06-14T11:59:05;3.77;;;2.60;;
7158;SDS011;63175;52.374;13.132;2023-06-14T12:01:35;4.17;;;2.63;;
7158;SDS011;63175;52.374;13.132;2023-06-14T12:04:04;2.50;;;2.30;;
7158;SDS011;63175;52.374;13.132;2023-06-14T12:06:32;2.77;;;2.57;;
7158;SDS011;63175;52.374;13.132;2023-06-14T12:09:03;2.70;;;2.50;;
7158;SDS011;63175;52.374;13.132;2023-06-14T12:11:32;4.00;;;2.60;;
7158;SDS011;63175;52.374;13.132;2023-06-14T12:13:59;4.20;;;2.47;;
7158;SDS011;63175;52.374;13.132;2023-06-14T12:16:30;3.63;;;2.60;;
7158;SDS011;63175;52.374;13.132;2023-06-14T12:18:59;4.37;;;2.60;;
7158;SDS011;63175;52.374;13.132;2023-06-14T12:21:27;2.70;;;2.50;;
7158;SDS011;63175;52.374;13.132;2023-06-14T12:23:55;3.07;;;2.80;;
7158;SDS011;63175;52.374;13.132;2023-06-14T12:26:22;3.00;;;2.73;;
7158;SDS011;63175;52.374;13.132;2023-06-14T12:28:52;4.03;;;2.87;;
7158;SDS011;63175;52.374;13.132;2023-06-14T12:31:19;5.83;;;2.80;;
7158;SDS011;63175;52.374;13.132;2023-06-14T12:33:47;3.60;;;2.90;;
7158;SDS011;63175;52.374;13.132;2023-06-14T12:36:14;3.27;;;2.33;;
7158;SDS011;63175;52.374;13.132;2023-06-14T12:38:42;4.10;;;2.70;;
7158;SDS011;63175;52.374;13.132;2023-06-14T12:41:12;2.73;;;2.53;;
7158;SDS011;63175;52.374;13.132;2023-06-14T12:43:39;3.80;;;3.13;;
7158;SDS011;63175;52.374;13.132;2023-06-14T12:46:07;4.00;;;3.20;;
7158;SDS011;63175;52.374;13.132;2023-06-14T12:48:33;3.13;;;2.60;;
7158;SDS011;63175;52.374;13.132;2023-06-14T12:51:00;4.40;;;3.50;;
7158;SDS011;63175;52.374;13.132;2023-06-14T12:53:27;2.97;;;2.67;;
7158;SDS011;63175;52.374;13.132;2023-06-14T12:55:54;2.70;;;2.50;;
7158;SDS011;63175;52.374;13.132;2023-06-14T12:58:22;2.50;;;2.30;;
7158;SDS011;63175;52.374;13.132;2023-06-14T13:00:49;2.90;;;2.60;;
7158;SDS011;63175;52.374;13.132;2023-06-14T13:03:17;3.40;;;2.80;;
7158;SDS011;63175;52.374;13.132;2023-06-14T13:05:44;3.30;;;2.63;;
7158;SDS011;63175;52.374;13.132;2023-06-14T13:08:10;3.73;;;2.70;;
7158;SDS011;63175;52.374;13.132;2023-06-14T13:10:38;2.53;;;2.27;;
7158;SDS011;63175;52.374;13.132;2023-06-14T13:13:05;3.13;;;2.47;;
7158;SDS011;63175;52.374;13.132;2023-06-14T13:15:34;2.80;;;2.60;;
7158;SDS011;63175;52.374;13.132;2023-06-14T13:18:01;2.63;;;2.30;;
7158;SDS011;63175;52.374;13.132;2023-06-14T13:20:28;2.87;;;2.67;;
7158;SDS011;63175;52.374;13.132;2023-06-14T13:22:55;3.47;;;3.17;;
7158;SDS011;63175;52.374;13.132;2023-06-14T13:25:21;4.27;;;2.60;;
7158;SDS011;63175;52.374;13.132;2023-06-14T13:27:48;6.03;;;2.77;;
7158;SDS011;63175;52.374;13.132;2023-06-14T13:30:15;4.40;;;2.93;;
7158;SDS011;63175;52.374;13.132;2023-06-14T13:32:44;3.33;;;2.90;;
7158;SDS011;63175;52.374;13.132;2023-06-14T13:35:10;2.77;;;2.37;;
7158;SDS011;63175;52.374;13.132;2023-06-14T13:37:37;7.93;;;3.30;;
7158;SDS011;63175;52.374;13.132;2023-06-14T13:40:05;6.30;;;2.60;;
7158;SDS011;63175;52.374;13.132;2023-06-14T13:42:33;5.47;;;3.30;;
7158;SDS011;63175;52.374;13.132;2023-06-14T13:45:00;3.93;;;3.63;;
7158;SDS011;63175;52.374;13.132;2023-06-14T13:47:27;4.43;;;3.47;;
7158;SDS011;63175;52.374;13.132;2023-06-14T13:49:56;2.73;;;2.53;;
7158;SDS011;63175;52.374;13.132;2023-06-14T13:52:23;4.53;;;2.40;;
7158;SDS011;63175;52.374;13.132;2023-06-14T13:54:50;3.90;;;3.50;;
7158;SDS011;63175;52.374;13.132;2023-06-14T13:57:17;3.83;;;2.40;;
7158;SDS011;63175;52.374;13.132;2023-06-14T13:59:44;3.00;;;2.80;;
7158;SDS011;63175;52.374;13.132;2023-06-14T14:02:11;3.33;;;2.83;;
7158;SDS011;63175;52.374;13.132;2023-06-14T14:04:38;3.80;;;2.70;;
7158;SDS011;63175;52.374;13.132;2023-06-14T14:07:07;4.43;;;2.57;;
7158;SDS011;63175;52.374;13.132;2023-06-14T14:09:34;6.40;;;3.03;;
7158;SDS011;63175;52.374;13.132;2023-06-14T14:12:02;4.37;;;2.60;;
7158;SDS011;63175;52.374;13.132;2023-06-14T14:14:29;3.20;;;2.60;;
7158;SDS011;63175;52.374;13.132;2023-06-14T14:16:57;2.60;;;2.40;;
7158;SDS011;63175;52.374;13.132;2023-06-14T14:19:24;2.50;;;2.30;;
7158;SDS011;63175;52.374;13.132;2023-06-14T14:21:51;7.67;;;3.17;;
7158;SDS011;63175;52.374;13.132;2023-06-14T14:24:20;2.80;;;2.60;;
7158;SDS011;63175;52.374;13.132;2023-06-14T14:26:47;3.63;;;2.40;;
7158;SDS011;63175;52.374;13.132;2023-06-14T14:29:14;2.73;;;2.53;;
7158;SDS011;63175;52.374;13.132;2023-06-14T14:31:42;3.67;;;2.70;;
7158;SDS011;63175;52.374;13.132;2023-06-14T14:34:08;4.20;;;3.17;;
7158;SDS011;63175;52.374;13.132;2023-06-14T14:36:35;5.63;;;2.70;;
7158;SDS011;63175;52.374;13.132;2023-06-14T14:39:06;2.60;;;2.40;;
7158;SDS011;63175;52.374;13.132;2023-06-14T14:41:34;3.03;;;2.87;;
7158;SDS011;63175;52.374;13.132;2023-06-14T14:44:02;2.53;;;2.23;;
7158;SDS011;63175;52.374;13.132;2023-06-14T14:46:30;4.60;;;3.20;;
7158;SDS011;63175;52.374;13.132;2023-06-14T14:48:58;5.77;;;2.40;;
7158;SDS011;63175;52.374;13.132;2023-06-14T14:51:25;3.70;;;3.10;;
7158;SDS011;63175;52.374;13.132;2023-06-14T14:53:51;3.47;;;2.73;;
7158;SDS011;63175;52.374;13.132;2023-06-14T14:56:18;3.30;;;3.00;;
7158;SDS011;63175;52.374;13.132;2023-06-14T14:58:46;3.53;;;2.73;;
7158;SDS011;63175;52.374;13.132;2023-06-14T15:01:14;2.60;;;2.27;;
7158;SDS011;63175;52.374;13.132;2023-06-14T15:03:41;7.90;;;2.73;;
7158;SDS011;63175;52.374;13.132;2023-06-14T15:06:08;2.93;;;2.67;;
7158;SDS011;63175;52.374;13.132;2023-06-14T15:08:35;4.90;;;2.70;;
7158;SDS011;63175;52.374;13.132;2023-06-14T15:11:01;3.53;;;3.23;;
7158;SDS011;63175;52.374;13.132;2023-06-14T15:13:28;3.00;;;2.80;;